KGIF/GIF METAR and TAF weather

Enter ICAO airport designator
Station Type Date Time Source
KGIF METAR 2019/06/19 00:53 UTC NOAA

KGIF 190053Z AUTO 21004KT 10SM CLR 27/22 A3003 RMK AO2 LTG DSNT SE SLP165 T02720222


Station Type Date Time Source
KGIF Decoded METAR 2019/06/19 00:53 UTC NOAA

WINTER HAVENS GILBERT AIRPORT , FL, United States (KGIF) 28-04N 81-45W 43M
Jun 18, 2019 - 08:53 PM EDT / 2019.06.19 0053 UTC
Wind: from the SSW (210 degrees) at 5 MPH (4 KT):0
Visibility: 10 mile(s):0
Sky conditions: clear
Weather: Lightning observed
Temperature: 81.0 F (27.2 C)
Dew Point: 72.0 F (22.2 C)
Relative Humidity: 74%
Pressure (altimeter): 30.03 in. Hg (1016 hPa)
ob: KGIF 190053Z AUTO 21004KT 10SM CLR 27/22 A3003 RMK AO2 LTG DSNT SE SLP165 T02720222
cycle: 1

Station Type Date Time Source
KGIF TAF UTC NOAA

Error!

Example: see airport list